createdAt,value
2022-11-26T00:02:30.716Z,99991.33
2022-11-26T00:07:33.142Z,99993.98
2022-11-26T00:12:34.898Z,100005.52
2022-11-26T00:17:36.515Z,100006.08
2022-11-26T00:22:45.965Z,100002.11
2022-11-26T00:27:49.596Z,100005.30
2022-11-26T00:32:53.600Z,100003.50
2022-11-26T00:37:58.030Z,100008.63
2022-11-26T00:43:01.870Z,100010.61
2022-11-26T00:48:04.196Z,100019.11
2022-11-26T00:53:06.690Z,100021.99
2022-11-26T00:58:21.823Z,100014.45
2022-11-26T01:03:24.390Z,100014.04
2022-11-26T01:08:35.294Z,100011.61
2022-11-26T01:13:36.904Z,100013.44
2022-11-26T01:18:38.519Z,100006.02
2022-11-26T01:23:40.166Z,100007.06
2022-11-26T01:28:42.031Z,100006.83
2022-11-26T01:33:44.491Z,100012.89
2022-11-26T01:38:46.244Z,100013.65
2022-11-26T01:43:51.095Z,100017.34
2022-11-26T01:48:54.518Z,100016.15
2022-11-26T01:54:00.361Z,100015.69
2022-11-26T01:59:21.475Z,100018.23
2022-11-26T02:04:35.212Z,100020.96
2022-11-26T02:09:37.054Z,100020.16
2022-11-26T02:14:41.949Z,100021.56
2022-11-26T02:20:20.824Z,100024.45
2022-11-26T02:25:37.253Z,100026.55
2022-11-26T02:30:49.015Z,100026.88
2022-11-26T02:36:04.193Z,100028.10
2022-11-26T02:41:05.812Z,100024.93
2022-11-26T02:46:14.738Z,100025.79
2022-11-26T02:51:26.092Z,100033.45
2022-11-26T02:56:30.577Z,100035.01
2022-11-26T03:01:48.050Z,100040.91
2022-11-26T03:06:55.623Z,100045.39
2022-11-26T03:11:57.250Z,100044.70
2022-11-26T03:16:58.858Z,100049.71
2022-11-26T03:22:00.445Z,100053.34
2022-11-26T03:27:02.267Z,100055.81
2022-11-26T03:32:04.311Z,100053.11
2022-11-26T03:37:06.007Z,100057.59
2022-11-26T03:42:07.596Z,100065.54
2022-11-26T03:47:09.220Z,100064.88
2022-11-26T03:52:10.830Z,100064.48
2022-11-26T03:57:12.480Z,100061.35
2022-11-26T04:02:14.190Z,100068.67
2022-11-26T04:07:15.901Z,100077.15
2022-11-26T04:12:17.590Z,100072.20
2022-11-26T04:17:19.166Z,100068.34
2022-11-26T04:22:20.965Z,100075.08
2022-11-26T04:27:22.592Z,100072.08
2022-11-26T04:32:24.170Z,100069.14
2022-11-26T04:37:25.814Z,100077.35
2022-11-26T04:42:27.430Z,100078.39
2022-11-26T04:47:29.006Z,100083.29
2022-11-26T04:52:30.597Z,100086.86
2022-11-26T04:57:32.230Z,100084.28
2022-11-26T05:02:34.131Z,100091.60
2022-11-26T05:07:35.947Z,100100.56
2022-11-26T05:12:37.781Z,100110.31
2022-11-26T05:17:39.444Z,100114.94
2022-11-26T05:22:42.175Z,100116.54
2022-11-26T05:27:44.002Z,100113.00
2022-11-26T05:32:45.639Z,100115.05
2022-11-26T05:37:47.413Z,100119.06
2022-11-26T05:42:49.145Z,100113.56
2022-11-26T05:47:50.750Z,100118.95
2022-11-26T05:52:52.401Z,100124.14
2022-11-26T05:57:54.006Z,100127.14
2022-11-26T06:02:55.718Z,100137.56
2022-11-26T06:07:57.513Z,100144.56
2022-11-26T06:12:59.152Z,100144.62
2022-11-26T06:18:00.750Z,100146.14
2022-11-26T06:23:02.472Z,100152.20
2022-11-26T06:28:04.275Z,100152.30
2022-11-26T06:33:06.098Z,100155.85
2022-11-26T06:38:08.356Z,100158.14
2022-11-26T06:43:10.027Z,100163.75
2022-11-26T06:48:11.612Z,100164.44
2022-11-26T06:53:13.215Z,100168.87
2022-11-26T06:58:14.783Z,100170.19
2022-11-26T07:03:20.983Z,100174.45
2022-11-26T07:08:25.485Z,100172.19
2022-11-26T07:13:27.093Z,100173.19
2022-11-26T07:18:28.971Z,100189.67
2022-11-26T07:23:30.595Z,100205.05
2022-11-26T07:28:33.884Z,100211.94
2022-11-26T07:33:35.700Z,100218.70
2022-11-26T07:38:37.277Z,100227.20
2022-11-26T07:43:41.179Z,100227.75
2022-11-26T07:48:42.942Z,100232.98
2022-11-26T07:53:45.434Z,100232.62
2022-11-26T07:58:47.534Z,100234.63
2022-11-26T08:03:50.811Z,100235.02
2022-11-26T08:08:52.649Z,100238.08
2022-11-26T08:13:58.034Z,100246.27
2022-11-26T08:19:12.615Z,100247.48
2022-11-26T08:24:17.408Z,100249.02
2022-11-26T08:29:19.023Z,100249.43
2022-11-26T08:34:20.627Z,100255.55
2022-11-26T08:39:22.257Z,100260.77
2022-11-26T08:44:23.907Z,100273.08
2022-11-26T08:49:25.527Z,100276.48
2022-11-26T08:54:27.246Z,100278.61
2022-11-26T08:59:28.856Z,100282.95
2022-11-26T09:04:31.370Z,100282.02
2022-11-26T09:09:32.986Z,100284.16
2022-11-26T09:14:39.257Z,100283.48
2022-11-26T09:19:41.393Z,100292.03
2022-11-26T09:24:43.015Z,100290.89
2022-11-26T09:29:44.800Z,100290.12
2022-11-26T09:34:46.548Z,100294.99
2022-11-26T09:39:49.154Z,100299.75
2022-11-26T09:45:08.498Z,100303.45
2022-11-26T09:50:13.110Z,100301.67
2022-11-26T09:55:28.801Z,100300.45
2022-11-26T10:00:44.305Z,100306.25
2022-11-26T10:05:51.915Z,100312.77
2022-11-26T10:11:20.210Z,100316.98
2022-11-26T10:16:35.885Z,100319.84
2022-11-26T10:21:58.506Z,100319.91
2022-11-26T10:27:10.377Z,100320.90
2022-11-26T10:32:25.131Z,100320.63
2022-11-26T10:37:28.581Z,100321.24
2022-11-26T10:42:40.336Z,100320.73
2022-11-26T10:47:42.318Z,100313.95
2022-11-26T10:52:45.585Z,100311.98
2022-11-26T10:58:07.064Z,100317.42
2022-11-26T11:04:06.283Z,100317.10
2022-11-26T11:08:54.508Z,100316.30
2022-11-26T11:13:57.267Z,100317.89
2022-11-26T11:19:03.400Z,100317.71
2022-11-26T11:24:16.767Z,100319.33
2022-11-26T11:29:28.260Z,100320.07
2022-11-26T11:34:42.441Z,100327.86
2022-11-26T11:39:44.717Z,100330.80
2022-11-26T11:44:50.827Z,100335.88
2022-11-26T11:50:07.800Z,100347.80
2022-11-26T11:55:55.852Z,100355.11
2022-11-26T12:01:44.018Z,100361.14
2022-11-26T12:06:51.507Z,100360.84
2022-11-26T12:12:03.274Z,100359.80
2022-11-26T12:17:14.258Z,100361.10
2022-11-26T12:22:26.230Z,100361.00
2022-11-26T12:27:45.766Z,100357.17
2022-11-26T12:32:55.844Z,100364.39
2022-11-26T12:38:11.535Z,100362.70
2022-11-26T12:43:48.702Z,100364.83
2022-11-26T12:49:13.204Z,100355.16
2022-11-26T12:54:44.652Z,100353.81
2022-11-26T13:00:15.568Z,100353.05
2022-11-26T13:05:49.961Z,100358.16
2022-11-26T13:11:14.279Z,100358.09
2022-11-26T13:16:54.522Z,100363.68
2022-11-26T13:22:40.594Z,100370.52
2022-11-26T13:28:23.545Z,100376.63
2022-11-26T13:33:39.820Z,100385.15
2022-11-26T13:39:34.112Z,100388.21
2022-11-26T13:44:51.661Z,100398.48
2022-11-26T13:50:12.557Z,100391.80
2022-11-26T13:55:28.889Z,100382.16
2022-11-26T14:00:33.282Z,100382.42
2022-11-26T14:05:50.205Z,100401.29
2022-11-26T14:10:51.834Z,100412.95
2022-11-26T14:16:14.829Z,100412.81
2022-11-26T14:21:18.139Z,100416.61
2022-11-26T14:26:37.709Z,100422.48
2022-11-26T14:31:54.315Z,100431.17
2022-11-26T14:36:59.215Z,100440.31
2022-11-26T14:42:06.062Z,100447.25
2022-11-26T14:47:21.090Z,100444.94
2022-11-26T14:52:29.541Z,100451.80
2022-11-26T14:57:41.631Z,100453.77
2022-11-26T15:02:45.370Z,100461.27
2022-11-26T15:07:57.637Z,100460.52
2022-11-26T15:13:13.479Z,100475.96
2022-11-26T15:18:18.080Z,100486.91
2022-11-26T15:23:28.265Z,100493.59
2022-11-26T15:28:38.120Z,100502.90
2022-11-26T15:33:41.287Z,100510.15
2022-11-26T15:39:02.506Z,100517.39
2022-11-26T15:44:04.541Z,100522.38
2022-11-26T15:49:18.066Z,100525.61
2022-11-26T15:55:11.994Z,100530.38
2022-11-26T16:00:18.396Z,100532.81
2022-11-26T16:05:37.562Z,100531.52
2022-11-26T16:10:40.903Z,100535.33
2022-11-26T16:16:06.348Z,100538.54
2022-11-26T16:21:23.897Z,100541.16
2022-11-26T16:26:26.367Z,100547.95
2022-11-26T16:31:28.269Z,100547.96
2022-11-26T16:36:33.392Z,100557.58
2022-11-26T16:41:35.096Z,100555.35
2022-11-26T16:46:38.051Z,100555.17
2022-11-26T16:51:39.696Z,100560.93
2022-11-26T16:56:41.610Z,100569.48
2022-11-26T17:01:43.229Z,100566.23
2022-11-26T17:06:45.308Z,100573.80
2022-11-26T17:11:47.004Z,100580.70
2022-11-26T17:16:48.689Z,100586.20
2022-11-26T17:21:50.324Z,100583.48
2022-11-26T17:26:52.276Z,100585.16
2022-11-26T17:31:53.904Z,100587.08
2022-11-26T17:36:59.996Z,100591.07
2022-11-26T17:42:01.616Z,100592.64
2022-11-26T17:47:17.084Z,100593.34
2022-11-26T17:52:19.749Z,100599.36
2022-11-26T17:57:22.310Z,100600.38
2022-11-26T18:02:23.978Z,100605.35
2022-11-26T18:07:25.961Z,100611.33
2022-11-26T18:12:28.258Z,100615.59
2022-11-26T18:17:30.122Z,100606.52
2022-11-26T18:22:32.280Z,100607.39
2022-11-26T18:27:34.021Z,100609.44
2022-11-26T18:32:37.698Z,100613.86
2022-11-26T18:37:40.397Z,100618.45
2022-11-26T18:42:42.856Z,100628.73
2022-11-26T18:47:44.488Z,100634.04
2022-11-26T18:52:46.124Z,100638.16
2022-11-26T18:57:47.728Z,100630.48
2022-11-26T19:02:49.440Z,100640.05
2022-11-26T19:07:51.250Z,100642.63
2022-11-26T19:12:53.005Z,100640.06
2022-11-26T19:17:54.804Z,100645.52
2022-11-26T19:22:56.422Z,100639.70
2022-11-26T19:28:01.004Z,100645.67
2022-11-26T19:33:06.270Z,100653.86
2022-11-26T19:38:07.837Z,100656.11
2022-11-26T19:43:09.495Z,100667.09
2022-11-26T19:48:11.105Z,100676.48
2022-11-26T19:53:12.759Z,100679.38
2022-11-26T19:58:14.407Z,100685.20
2022-11-26T20:03:16.207Z,100688.45
2022-11-26T20:08:18.337Z,100685.73
2022-11-26T20:13:19.927Z,100688.45
2022-11-26T20:18:21.625Z,100688.47
2022-11-26T20:23:23.267Z,100685.04
2022-11-26T20:28:24.995Z,100684.70
2022-11-26T20:33:26.616Z,100688.11
2022-11-26T20:38:28.180Z,100691.88
2022-11-26T20:43:29.770Z,100691.88
2022-11-26T20:48:33.272Z,100695.98
2022-11-26T20:53:37.464Z,100694.96
2022-11-26T20:58:39.654Z,100694.61
2022-11-26T21:03:41.262Z,100691.02
2022-11-26T21:08:43.475Z,100685.02
2022-11-26T21:13:45.137Z,100685.17
2022-11-26T21:18:46.766Z,100685.35
2022-11-26T21:23:48.915Z,100686.73
2022-11-26T21:28:56.631Z,100688.27
2022-11-26T21:34:02.607Z,100687.24
2022-11-26T21:39:04.612Z,100686.37
2022-11-26T21:44:06.267Z,100683.96
2022-11-26T21:49:08.027Z,100688.23
2022-11-26T21:54:09.920Z,100690.48
2022-11-26T21:59:11.590Z,100695.09
2022-11-26T22:04:17.080Z,100692.38
2022-11-26T22:09:18.835Z,100696.14
2022-11-26T22:14:20.423Z,100699.73
2022-11-26T22:19:22.221Z,100700.75
2022-11-26T22:24:23.870Z,100703.98
2022-11-26T22:29:25.587Z,100709.98
2022-11-26T22:34:28.534Z,100713.58
2022-11-26T22:39:31.222Z,100716.65
2022-11-26T22:44:33.439Z,100718.37
2022-11-26T22:49:36.418Z,100721.61
2022-11-26T22:54:37.995Z,100729.30
2022-11-26T22:59:39.782Z,100732.89
2022-11-26T23:04:41.605Z,100733.23
2022-11-26T23:09:46.778Z,100730.34
2022-11-26T23:14:48.816Z,100734.11
2022-11-26T23:19:50.417Z,100737.19
2022-11-26T23:24:52.031Z,100738.20
2022-11-26T23:29:53.634Z,100731.37
2022-11-26T23:34:55.248Z,100731.02
2022-11-26T23:39:56.846Z,100736.51
2022-11-26T23:44:58.433Z,100729.17
2022-11-26T23:50:01.115Z,100732.94
2022-11-26T23:55:03.302Z,100739.77
